createdAt,value
2023-04-29T00:02:12.292Z,2.19
2023-04-29T00:04:39.039Z,2.40
2023-04-29T00:07:05.489Z,2.41
2023-04-29T00:09:31.770Z,2.20
2023-04-29T00:11:58.030Z,2.12
2023-04-29T00:14:24.283Z,2.42
2023-04-29T00:16:50.614Z,2.40
2023-04-29T00:19:16.912Z,2.63
2023-04-29T00:21:43.186Z,2.83
2023-04-29T00:24:09.440Z,3.06
2023-04-29T00:26:35.698Z,2.72
2023-04-29T00:29:01.952Z,2.82
2023-04-29T00:31:28.234Z,2.82
2023-04-29T00:33:54.502Z,2.52
2023-04-29T00:36:20.781Z,2.57
2023-04-29T00:38:47.068Z,2.15
2023-04-29T00:41:13.375Z,1.99
2023-04-29T00:43:39.648Z,1.90
2023-04-29T00:46:06.033Z,1.85
2023-04-29T00:48:32.293Z,1.79
2023-04-29T00:50:58.540Z,2.29
2023-04-29T00:53:24.786Z,2.37
2023-04-29T00:55:51.057Z,2.06
2023-04-29T00:58:17.328Z,2.16
2023-04-29T01:00:43.605Z,2.08
2023-04-29T01:03:10.029Z,2.37
2023-04-29T01:05:36.483Z,2.02
2023-04-29T01:08:02.752Z,2.07
2023-04-29T01:10:29.043Z,2.03
2023-04-29T01:12:55.329Z,3.00
2023-04-29T01:15:21.603Z,2.72
2023-04-29T01:17:47.908Z,2.63
2023-04-29T01:20:14.191Z,3.05
2023-04-29T01:22:40.467Z,2.61
2023-04-29T01:25:06.792Z,2.73
2023-04-29T01:27:33.047Z,2.58
2023-04-29T01:29:59.356Z,2.50
2023-04-29T01:32:25.678Z,2.62
2023-04-29T01:34:51.954Z,2.68
2023-04-29T01:37:18.204Z,2.84
2023-04-29T01:39:44.497Z,2.51
2023-04-29T01:42:10.758Z,2.60
2023-04-29T01:44:37.014Z,2.70
2023-04-29T01:47:03.365Z,2.97
2023-04-29T01:49:29.650Z,2.96
2023-04-29T01:51:55.913Z,2.67
2023-04-29T01:54:22.165Z,2.74
2023-04-29T01:56:48.409Z,2.79
2023-04-29T01:59:14.676Z,2.92
2023-04-29T02:01:40.935Z,2.56
2023-04-29T02:04:07.298Z,2.67
2023-04-29T02:06:33.627Z,2.50
2023-04-29T02:08:59.944Z,2.58
2023-04-29T02:11:26.244Z,2.25
2023-04-29T02:13:52.519Z,2.34
2023-04-29T02:16:18.863Z,1.80
2023-04-29T02:18:45.191Z,2.00
2023-04-29T02:21:11.458Z,1.79
2023-04-29T02:23:37.736Z,1.84
2023-04-29T02:26:04.015Z,1.57
2023-04-29T02:28:30.316Z,1.72
2023-04-29T02:30:56.574Z,1.64
2023-04-29T02:33:22.889Z,1.76
2023-04-29T02:35:49.173Z,1.87
2023-04-29T02:38:15.472Z,1.87
2023-04-29T02:40:41.743Z,1.89
2023-04-29T02:43:07.999Z,2.07
2023-04-29T02:45:34.293Z,2.01
2023-04-29T02:48:00.643Z,2.18
2023-04-29T02:50:27.050Z,2.20
2023-04-29T02:52:53.331Z,2.20
2023-04-29T02:55:19.590Z,2.45
2023-04-29T02:57:45.849Z,2.25
2023-04-29T03:00:12.102Z,2.24
2023-04-29T03:02:38.451Z,2.04
2023-04-29T03:05:04.888Z,2.20
2023-04-29T03:07:31.157Z,2.02
2023-04-29T03:09:57.404Z,2.12
2023-04-29T03:12:23.658Z,2.13
2023-04-29T03:14:49.935Z,1.89
2023-04-29T03:17:16.217Z,1.80
2023-04-29T03:19:42.476Z,1.53
2023-04-29T03:22:08.742Z,1.66
2023-04-29T03:24:35.024Z,1.47
2023-04-29T03:27:01.286Z,1.44
2023-04-29T03:29:27.540Z,1.64
2023-04-29T03:31:53.812Z,1.55
2023-04-29T03:34:20.054Z,1.46
2023-04-29T03:36:46.301Z,1.42
2023-04-29T03:39:12.575Z,1.30
2023-04-29T03:41:38.873Z,1.25
2023-04-29T03:44:05.146Z,1.58
2023-04-29T03:46:31.465Z,1.24
2023-04-29T03:48:57.736Z,1.48
2023-04-29T03:51:23.981Z,1.46
2023-04-29T03:53:50.229Z,1.27
2023-04-29T03:56:17.392Z,1.46
2023-04-29T03:58:43.799Z,1.66
2023-04-29T04:01:10.109Z,1.44
2023-04-29T04:03:36.649Z,1.38
2023-04-29T04:06:03.083Z,1.45
2023-04-29T04:08:29.330Z,1.40
2023-04-29T04:10:55.593Z,1.60
2023-04-29T04:13:21.864Z,1.41
2023-04-29T04:15:48.187Z,1.46
2023-04-29T04:18:14.546Z,1.61
2023-04-29T04:20:40.853Z,1.43
2023-04-29T04:23:07.139Z,1.32
2023-04-29T04:25:33.428Z,1.21
2023-04-29T04:27:59.715Z,1.35
2023-04-29T04:30:25.979Z,1.45
2023-04-29T04:32:52.297Z,1.58
2023-04-29T04:35:18.620Z,1.53
2023-04-29T04:37:44.876Z,1.57
2023-04-29T04:40:11.156Z,1.63
2023-04-29T04:42:37.430Z,1.70
2023-04-29T04:45:03.680Z,1.73
2023-04-29T04:47:29.993Z,1.81
2023-04-29T04:49:56.328Z,1.72
2023-04-29T04:52:22.589Z,1.68
2023-04-29T04:54:48.876Z,1.68
2023-04-29T04:57:15.156Z,1.64
2023-04-29T04:59:41.413Z,1.57
2023-04-29T05:02:07.758Z,1.26
2023-04-29T05:04:34.187Z,1.21
2023-04-29T05:07:00.462Z,1.19
2023-04-29T05:09:26.722Z,1.18
2023-04-29T05:11:53.022Z,1.26
2023-04-29T05:14:19.280Z,0.97
2023-04-29T05:16:45.601Z,0.96
2023-04-29T05:19:11.884Z,1.12
2023-04-29T05:21:38.158Z,0.99
2023-04-29T05:24:04.423Z,1.03
2023-04-29T05:26:30.696Z,1.04
2023-04-29T05:28:56.961Z,1.00
2023-04-29T05:31:23.279Z,0.82
2023-04-29T05:33:49.698Z,0.96
2023-04-29T05:36:15.986Z,0.94
2023-04-29T05:38:42.281Z,0.94
2023-04-29T05:41:08.572Z,0.92
2023-04-29T05:43:36.222Z,0.88
2023-04-29T05:46:03.129Z,0.96
2023-04-29T05:48:29.391Z,0.83
2023-04-29T05:50:55.653Z,0.75
2023-04-29T05:53:21.890Z,0.92
2023-04-29T05:55:49.694Z,0.83
2023-04-29T05:58:17.224Z,0.99
2023-04-29T06:00:43.491Z,0.94
2023-04-29T06:03:09.905Z,0.99
2023-04-29T06:05:36.498Z,0.88
2023-04-29T06:08:02.970Z,0.96
2023-04-29T06:10:29.271Z,1.00
2023-04-29T06:12:55.532Z,1.04
2023-04-29T06:15:21.778Z,1.23
2023-04-29T06:17:48.071Z,1.28
2023-04-29T06:20:14.328Z,1.16
2023-04-29T06:22:40.599Z,1.06
2023-04-29T06:25:06.865Z,0.96
2023-04-29T06:27:33.111Z,1.10
2023-04-29T06:29:59.384Z,1.06
2023-04-29T06:32:25.672Z,1.27
2023-04-29T06:34:51.978Z,1.12
2023-04-29T06:37:18.228Z,1.11
2023-04-29T06:39:44.505Z,1.38
2023-04-29T06:42:10.787Z,1.01
2023-04-29T06:44:37.086Z,0.96
2023-04-29T06:47:03.380Z,1.06
2023-04-29T06:49:29.688Z,1.30
2023-04-29T06:51:55.936Z,1.05
2023-04-29T06:54:22.201Z,1.27
2023-04-29T06:56:48.495Z,1.14
2023-04-29T06:59:14.761Z,1.22
2023-04-29T07:01:44.033Z,1.13
2023-04-29T07:04:10.872Z,1.08
2023-04-29T07:06:37.167Z,1.22
2023-04-29T07:09:03.415Z,1.12
2023-04-29T07:11:29.666Z,1.10
2023-04-29T07:13:55.908Z,1.20
2023-04-29T07:16:22.292Z,1.07
2023-04-29T07:18:48.587Z,1.02
2023-04-29T07:21:14.834Z,1.23
2023-04-29T07:23:41.099Z,1.02
2023-04-29T07:26:07.346Z,1.28
2023-04-29T07:28:33.590Z,1.19
2023-04-29T07:30:59.902Z,1.19
2023-04-29T07:33:26.189Z,1.21
2023-04-29T07:35:52.528Z,1.23
2023-04-29T07:38:18.819Z,1.16
2023-04-29T07:40:45.077Z,1.27
2023-04-29T07:43:11.361Z,1.32
2023-04-29T07:45:37.669Z,1.23
2023-04-29T07:48:03.978Z,1.18
2023-04-29T07:50:30.237Z,0.99
2023-04-29T07:52:56.489Z,0.96
2023-04-29T07:55:22.782Z,0.90
2023-04-29T07:57:49.040Z,1.01
2023-04-29T08:00:15.296Z,0.82
2023-04-29T08:02:41.719Z,0.89
2023-04-29T08:05:08.552Z,0.91
2023-04-29T08:07:35.117Z,0.98
2023-04-29T08:10:01.400Z,0.83
2023-04-29T08:12:27.651Z,0.75
2023-04-29T08:14:54.174Z,0.82
2023-04-29T08:17:20.626Z,0.80
2023-04-29T08:19:46.893Z,0.75
2023-04-29T08:22:13.151Z,0.63
2023-04-29T08:24:39.407Z,0.75
2023-04-29T08:27:05.802Z,0.90
2023-04-29T08:29:32.088Z,0.72
2023-04-29T08:31:58.374Z,0.79
2023-04-29T08:34:24.669Z,0.82
2023-04-29T08:36:50.940Z,0.70
2023-04-29T08:41:43.792Z,0.90
2023-04-29T08:44:10.060Z,0.80
2023-04-29T08:46:36.317Z,0.91
2023-04-29T08:49:02.587Z,0.85
2023-04-29T08:51:28.868Z,0.90
2023-04-29T08:53:55.138Z,1.01
2023-04-29T08:56:21.401Z,0.91
2023-04-29T08:58:47.687Z,0.90
2023-04-29T09:01:14.007Z,0.89
2023-04-29T09:03:40.424Z,0.92
2023-04-29T09:06:06.796Z,0.84
2023-04-29T09:08:33.079Z,0.82
2023-04-29T09:10:59.357Z,0.85
2023-04-29T09:13:25.624Z,0.75
2023-04-29T09:15:51.878Z,0.91
2023-04-29T09:18:18.144Z,1.11
2023-04-29T09:20:44.395Z,0.85
2023-04-29T09:23:10.747Z,0.80
2023-04-29T09:25:37.056Z,0.92
2023-04-29T09:28:03.336Z,1.10
2023-04-29T09:30:29.610Z,0.92
2023-04-29T09:32:55.904Z,0.82
2023-04-29T09:35:22.173Z,0.76
2023-04-29T09:37:48.454Z,0.80
2023-04-29T09:40:14.701Z,0.82
2023-04-29T09:42:40.981Z,0.85
2023-04-29T09:45:07.258Z,0.88
2023-04-29T09:47:33.660Z,0.74
2023-04-29T09:49:59.969Z,0.83
2023-04-29T09:52:26.212Z,0.88
2023-04-29T09:54:52.760Z,1.14
2023-04-29T09:57:19.194Z,1.18
2023-04-29T09:59:45.470Z,1.00
2023-04-29T10:02:11.771Z,1.07
2023-04-29T10:04:39.587Z,0.95
2023-04-29T10:07:06.434Z,1.04
2023-04-29T10:09:32.714Z,0.83
2023-04-29T10:11:59.057Z,0.88
2023-04-29T10:14:25.321Z,0.97
2023-04-29T10:16:51.576Z,0.84
2023-04-29T10:19:17.828Z,0.78
2023-04-29T10:21:44.084Z,0.93
2023-04-29T10:24:10.376Z,1.21
2023-04-29T10:26:36.635Z,1.20
2023-04-29T10:29:02.894Z,1.00
2023-04-29T10:31:29.230Z,1.04
2023-04-29T10:33:55.665Z,1.12
2023-04-29T10:36:21.948Z,1.38
2023-04-29T10:38:48.207Z,1.04
2023-04-29T10:41:14.481Z,1.33
2023-04-29T10:43:40.761Z,0.88
2023-04-29T10:46:07.035Z,0.76
2023-04-29T10:48:33.313Z,0.79
2023-04-29T10:50:59.566Z,0.85
2023-04-29T10:53:25.859Z,0.83
2023-04-29T10:55:52.127Z,0.76
2023-04-29T10:58:18.377Z,0.63
2023-04-29T11:00:44.695Z,0.77
2023-04-29T11:03:11.066Z,0.84
2023-04-29T11:05:37.472Z,0.79
2023-04-29T11:08:03.766Z,0.80
2023-04-29T11:10:30.059Z,0.72
2023-04-29T11:12:56.324Z,0.83
2023-04-29T11:15:22.611Z,0.81
2023-04-29T11:17:48.999Z,0.83
2023-04-29T11:20:15.406Z,0.73
2023-04-29T11:22:41.674Z,0.95
2023-04-29T11:25:07.957Z,0.85
2023-04-29T11:27:34.207Z,0.98
2023-04-29T11:30:00.606Z,0.93
2023-04-29T11:32:26.988Z,0.87
2023-04-29T11:34:53.568Z,1.09
2023-04-29T11:37:20.221Z,1.10
2023-04-29T11:39:46.482Z,1.08
2023-04-29T11:42:12.735Z,0.94
2023-04-29T11:44:39.016Z,1.06
2023-04-29T11:47:05.367Z,1.01
2023-04-29T11:49:31.629Z,0.97
2023-04-29T11:51:57.877Z,1.13
2023-04-29T11:54:24.153Z,0.96
2023-04-29T11:56:50.436Z,0.97
2023-04-29T11:59:16.712Z,0.93
2023-04-29T12:01:42.981Z,0.84
2023-04-29T12:04:09.429Z,0.70
2023-04-29T12:06:35.918Z,0.69
2023-04-29T12:09:02.166Z,0.88
2023-04-29T12:11:28.451Z,0.89
2023-04-29T12:13:54.705Z,0.81
2023-04-29T12:16:20.991Z,0.82
2023-04-29T12:18:47.318Z,0.79
2023-04-29T12:21:13.638Z,0.60
2023-04-29T12:23:39.904Z,0.73
2023-04-29T12:26:06.147Z,0.81
2023-04-29T12:28:32.378Z,0.72
2023-04-29T12:30:58.630Z,0.68
2023-04-29T12:33:24.903Z,0.76
2023-04-29T12:35:51.149Z,0.82
2023-04-29T12:38:17.418Z,0.80
2023-04-29T12:40:43.686Z,0.70
2023-04-29T12:43:09.940Z,0.83
2023-04-29T12:45:36.208Z,0.91
2023-04-29T12:48:03.274Z,0.79
2023-04-29T12:50:31.963Z,0.73
2023-04-29T12:52:58.247Z,0.69
2023-04-29T12:55:24.511Z,0.81
2023-04-29T12:57:50.777Z,0.93
2023-04-29T13:00:17.055Z,0.88
2023-04-29T13:02:43.486Z,0.79
2023-04-29T13:05:09.888Z,0.66
2023-04-29T13:07:37.111Z,0.84
2023-04-29T13:10:03.462Z,0.90
2023-04-29T13:12:29.740Z,1.01
2023-04-29T13:14:57.951Z,0.92
2023-04-29T13:17:24.454Z,0.85
2023-04-29T13:19:52.026Z,0.69
2023-04-29T13:22:18.682Z,0.70
2023-04-29T13:24:44.940Z,0.97
2023-04-29T13:27:11.249Z,1.00
2023-04-29T13:29:37.542Z,0.92
2023-04-29T13:32:03.850Z,0.71
2023-04-29T13:34:30.187Z,0.86
2023-04-29T13:36:56.450Z,0.78
2023-04-29T13:39:23.025Z,0.65
2023-04-29T13:41:49.424Z,0.65
2023-04-29T13:44:27.145Z,0.70
2023-04-29T13:46:57.201Z,0.68
2023-04-29T13:49:55.965Z,0.80
2023-04-29T13:54:59.173Z,0.69
2023-04-29T13:59:54.361Z,0.67
2023-04-29T14:04:50.086Z,0.75
2023-04-29T14:07:16.508Z,0.87
2023-04-29T14:09:42.782Z,1.02
2023-04-29T14:12:09.045Z,0.92
2023-04-29T14:14:35.295Z,0.79
2023-04-29T14:17:02.618Z,1.04
2023-04-29T14:19:28.887Z,1.31
2023-04-29T14:21:55.164Z,1.23
2023-04-29T14:24:21.420Z,1.05
2023-04-29T14:26:47.708Z,1.12
2023-04-29T14:29:13.937Z,1.22
2023-04-29T14:31:40.241Z,1.29
2023-04-29T14:34:06.587Z,1.15
2023-04-29T14:36:32.863Z,1.32
2023-04-29T14:38:59.144Z,1.20
2023-04-29T14:41:25.421Z,1.45
2023-04-29T14:43:51.728Z,1.32
2023-04-29T14:46:18.120Z,1.36
2023-04-29T14:48:44.389Z,1.27
2023-04-29T14:51:10.668Z,1.49
2023-04-29T14:53:36.941Z,2.03
2023-04-29T14:56:03.245Z,1.42
2023-04-29T14:58:29.536Z,1.38
2023-04-29T15:00:55.789Z,1.52
2023-04-29T15:03:23.089Z,1.55
2023-04-29T15:05:49.653Z,1.61
2023-04-29T15:08:15.971Z,1.43
2023-04-29T15:10:42.235Z,1.38
2023-04-29T15:13:08.489Z,1.23
2023-04-29T15:15:34.776Z,1.23
2023-04-29T15:18:01.137Z,1.18
2023-04-29T15:20:27.423Z,1.33
2023-04-29T15:22:53.686Z,1.36
2023-04-29T15:25:19.944Z,1.41
2023-04-29T15:27:46.185Z,1.48
2023-04-29T15:30:12.462Z,1.27
2023-04-29T15:32:38.746Z,1.44
2023-04-29T15:35:05.148Z,1.44
2023-04-29T15:37:31.453Z,1.36
2023-04-29T15:39:57.727Z,1.26
2023-04-29T15:42:24.028Z,1.03
2023-04-29T15:44:50.283Z,1.24
2023-04-29T15:47:16.535Z,1.21
2023-04-29T15:49:42.794Z,1.20
2023-04-29T15:52:09.046Z,1.17
2023-04-29T15:54:35.333Z,1.10
2023-04-29T15:57:01.595Z,1.03
2023-04-29T15:59:27.898Z,1.09
2023-04-29T16:01:54.172Z,1.19
2023-04-29T16:04:20.473Z,0.97
2023-04-29T16:06:46.803Z,1.22
2023-04-29T16:09:13.189Z,1.39
2023-04-29T16:11:39.438Z,1.36
2023-04-29T16:14:05.698Z,1.39
2023-04-29T16:16:32.030Z,1.37
2023-04-29T16:18:58.371Z,1.13
2023-04-29T16:21:24.683Z,1.15
2023-04-29T16:23:51.023Z,1.26
2023-04-29T16:26:17.279Z,1.10
2023-04-29T16:28:43.539Z,1.12
2023-04-29T16:31:09.876Z,1.21
2023-04-29T16:33:36.208Z,1.39
2023-04-29T16:36:02.474Z,1.21
2023-04-29T16:38:28.782Z,1.27
2023-04-29T16:40:55.058Z,1.38
2023-04-29T16:43:21.308Z,1.39
2023-04-29T16:45:47.678Z,1.39
2023-04-29T16:48:13.983Z,1.30
2023-04-29T16:50:40.249Z,1.57
2023-04-29T16:53:06.518Z,1.13
2023-04-29T16:55:32.919Z,1.14
2023-04-29T16:57:59.212Z,1.12
2023-04-29T17:00:25.582Z,1.14
2023-04-29T17:02:51.919Z,1.17
2023-04-29T17:05:18.234Z,0.97
2023-04-29T17:07:44.507Z,1.31
2023-04-29T17:10:10.746Z,1.08
2023-04-29T17:12:37.007Z,1.25
2023-04-29T17:15:03.275Z,1.10
2023-04-29T17:17:29.636Z,1.42
2023-04-29T17:19:55.997Z,1.41
2023-04-29T17:22:22.532Z,1.44
2023-04-29T17:24:49.013Z,1.37
2023-04-29T17:27:15.297Z,1.25
2023-04-29T17:29:41.590Z,1.27
2023-04-29T17:32:07.951Z,1.49
2023-04-29T17:34:34.301Z,1.52
2023-04-29T17:37:00.600Z,1.46
2023-04-29T17:39:26.857Z,1.68
2023-04-29T17:41:53.176Z,1.41
2023-04-29T17:44:21.782Z,1.55
2023-04-29T17:46:49.469Z,1.31
2023-04-29T17:49:15.724Z,1.22
2023-04-29T17:51:42.010Z,1.04
2023-04-29T17:54:08.262Z,1.27
2023-04-29T17:56:34.502Z,1.15
2023-04-29T17:59:00.762Z,1.38
2023-04-29T18:01:27.100Z,1.14
2023-04-29T18:03:53.419Z,1.17
2023-04-29T18:06:19.815Z,1.15
2023-04-29T18:08:46.161Z,1.37
2023-04-29T18:11:12.404Z,1.49
2023-04-29T18:13:38.657Z,1.48
2023-04-29T18:16:04.963Z,1.30
2023-04-29T18:18:31.213Z,1.38
2023-04-29T18:20:57.544Z,1.57
2023-04-29T18:23:23.820Z,1.41
2023-04-29T18:25:50.073Z,1.55
2023-04-29T18:28:24.890Z,1.48
2023-04-29T18:30:51.761Z,1.48
2023-04-29T18:33:18.054Z,1.74
2023-04-29T18:35:44.337Z,1.33
2023-04-29T18:38:10.615Z,1.58
2023-04-29T18:40:36.889Z,1.40
2023-04-29T18:43:03.159Z,1.37
2023-04-29T18:45:29.507Z,1.51
2023-04-29T18:47:55.862Z,1.70
2023-04-29T18:50:22.176Z,1.70
2023-04-29T18:52:48.433Z,1.96
2023-04-29T18:55:14.692Z,1.80
2023-04-29T18:57:40.984Z,1.51
2023-04-29T19:00:07.239Z,1.72
2023-04-29T19:02:33.562Z,1.97
2023-04-29T19:04:59.882Z,1.70
2023-04-29T19:07:26.265Z,1.56
2023-04-29T19:09:52.951Z,1.61
2023-04-29T19:12:19.340Z,1.72
2023-04-29T19:14:45.599Z,1.95
2023-04-29T19:17:11.902Z,2.16
2023-04-29T19:19:38.221Z,4.46
2023-04-29T19:22:04.473Z,5.86
2023-04-29T19:24:30.784Z,4.24
2023-04-29T19:26:57.040Z,3.39
2023-04-29T19:29:23.282Z,3.01
2023-04-29T19:31:49.606Z,2.92
2023-04-29T19:34:15.923Z,3.12
2023-04-29T19:36:42.176Z,3.26
2023-04-29T19:39:08.476Z,2.92
2023-04-29T19:41:35.159Z,3.13
2023-04-29T19:44:01.611Z,2.94
2023-04-29T19:46:27.888Z,2.74
2023-04-29T19:48:54.170Z,3.00
2023-04-29T19:51:20.447Z,3.20
2023-04-29T19:53:46.754Z,2.95
2023-04-29T19:56:13.010Z,2.71
2023-04-29T19:58:39.299Z,2.72
2023-04-29T20:01:05.619Z,2.54
2023-04-29T20:03:32.055Z,2.52
2023-04-29T20:05:58.390Z,2.55
2023-04-29T20:08:24.678Z,2.43
2023-04-29T20:10:50.941Z,2.90
2023-04-29T20:13:17.220Z,2.87
2023-04-29T20:15:43.512Z,2.69
2023-04-29T20:18:09.775Z,2.82
2023-04-29T20:20:36.106Z,2.69
2023-04-29T20:23:02.401Z,2.28
2023-04-29T20:25:28.676Z,2.52
2023-04-29T20:27:54.988Z,2.32
2023-04-29T20:30:21.287Z,2.30
2023-04-29T20:32:47.595Z,2.43
2023-04-29T20:35:13.871Z,2.44
2023-04-29T20:37:40.119Z,2.08
2023-04-29T20:40:06.408Z,2.31
2023-04-29T20:42:32.666Z,2.48
2023-04-29T20:44:58.919Z,2.37
2023-04-29T20:47:25.219Z,2.37
2023-04-29T20:49:51.602Z,2.26
2023-04-29T20:52:17.990Z,2.36
2023-04-29T20:54:44.264Z,2.55
2023-04-29T20:57:10.555Z,2.60
2023-04-29T20:59:36.813Z,2.74
2023-04-29T21:02:03.071Z,2.70
2023-04-29T21:04:29.400Z,2.72
2023-04-29T21:06:55.714Z,2.54
2023-04-29T21:09:21.983Z,2.50
2023-04-29T21:11:48.252Z,2.32
2023-04-29T21:14:14.543Z,2.55
2023-04-29T21:16:40.811Z,2.35
2023-04-29T21:19:07.060Z,2.47
2023-04-29T21:21:33.350Z,2.54
2023-04-29T21:23:59.629Z,2.44
2023-04-29T21:26:25.893Z,2.51
2023-04-29T21:28:52.163Z,2.59
2023-04-29T21:31:18.521Z,2.75
2023-04-29T21:33:44.910Z,2.47
2023-04-29T21:36:11.165Z,2.60
2023-04-29T21:38:37.406Z,2.65
2023-04-29T21:41:03.706Z,2.36
2023-04-29T21:43:29.950Z,2.54
2023-04-29T21:45:56.194Z,2.31
2023-04-29T21:48:22.492Z,2.66
2023-04-29T21:50:48.764Z,2.51
2023-04-29T21:53:16.676Z,2.33
2023-04-29T21:55:43.138Z,2.47
2023-04-29T21:58:09.421Z,2.48
2023-04-29T22:00:35.730Z,2.52
2023-04-29T22:03:02.131Z,2.50
2023-04-29T22:05:28.477Z,2.75
2023-04-29T22:07:54.756Z,2.55
2023-04-29T22:10:21.057Z,2.45
2023-04-29T22:12:47.344Z,2.39
2023-04-29T22:15:26.817Z,2.46
2023-04-29T22:17:54.267Z,2.63
2023-04-29T22:20:20.709Z,2.43
2023-04-29T22:22:46.978Z,2.36
2023-04-29T22:25:13.267Z,2.51
2023-04-29T22:27:39.536Z,2.25
2023-04-29T22:30:05.805Z,2.53
2023-04-29T22:32:32.103Z,2.56
2023-04-29T22:35:00.517Z,2.37
2023-04-29T22:37:27.133Z,2.56
2023-04-29T22:39:53.581Z,2.57
2023-04-29T22:42:20.057Z,2.70
2023-04-29T22:44:46.335Z,2.92
2023-04-29T22:47:12.602Z,2.85
2023-04-29T22:49:38.869Z,2.84
2023-04-29T22:52:05.146Z,3.09
2023-04-29T22:54:31.540Z,3.18
2023-04-29T22:56:57.874Z,3.07
2023-04-29T22:59:24.168Z,3.07
2023-04-29T23:01:50.497Z,2.82
2023-04-29T23:04:16.855Z,2.88
2023-04-29T23:06:43.247Z,3.20
2023-04-29T23:09:09.677Z,3.21
2023-04-29T23:11:36.007Z,3.19
2023-04-29T23:14:05.318Z,3.37
2023-04-29T23:16:31.621Z,3.27
2023-04-29T23:18:57.906Z,3.26
2023-04-29T23:21:24.174Z,3.10
2023-04-29T23:23:50.428Z,3.41
2023-04-29T23:26:16.709Z,3.40
2023-04-29T23:28:42.973Z,3.40
2023-04-29T23:31:09.223Z,3.46
2023-04-29T23:33:35.488Z,3.53
2023-04-29T23:36:01.749Z,3.16
2023-04-29T23:38:27.999Z,3.23
2023-04-29T23:40:54.284Z,3.14
2023-04-29T23:43:20.550Z,3.10
2023-04-29T23:45:46.877Z,3.35
2023-04-29T23:48:13.202Z,3.51
2023-04-29T23:50:39.467Z,3.57
2023-04-29T23:53:05.726Z,3.27
2023-04-29T23:55:32.008Z,3.40
2023-04-29T23:57:58.289Z,3.50
